createdAt,value
2022-11-16T00:00:01.557Z,65.60
2022-11-16T00:02:53.669Z,73.80
2022-11-16T00:05:27.023Z,88.40
2022-11-16T00:07:58.032Z,91.50
2022-11-16T00:10:26.126Z,98.40
2022-11-16T00:12:54.222Z,98.10
2022-11-16T00:15:22.427Z,75.20
2022-11-16T00:17:50.562Z,77.30
2022-11-16T00:20:18.869Z,59.30
2022-11-16T00:22:46.983Z,60.60
2022-11-16T00:25:15.105Z,58.30
2022-11-16T00:27:43.194Z,54.90
2022-11-16T00:30:12.124Z,53.90
2022-11-16T00:32:40.259Z,54.70
2022-11-16T00:35:09.198Z,49.40
2022-11-16T00:37:37.305Z,50.20
2022-11-16T00:40:06.980Z,47.30
2022-11-16T00:42:35.051Z,63.50
2022-11-16T00:45:04.203Z,57.60
2022-11-16T00:47:32.327Z,64.40
2022-11-16T00:50:00.529Z,52.60
2022-11-16T00:52:28.675Z,52.30
2022-11-16T00:54:57.286Z,60.70
2022-11-16T00:57:25.567Z,63.60
2022-11-16T00:59:53.973Z,59.40
2022-11-16T01:02:22.427Z,62.20
2022-11-16T01:04:50.675Z,66.30
2022-11-16T01:07:18.853Z,75.90
2022-11-16T01:09:48.726Z,93.20
2022-11-16T01:12:18.494Z,89.10
2022-11-16T01:14:48.011Z,64.90
2022-11-16T01:17:16.219Z,68.50
2022-11-16T01:19:44.368Z,57.40
2022-11-16T01:22:12.678Z,45.50
2022-11-16T01:24:41.248Z,39.90
2022-11-16T01:27:09.471Z,30.40
2022-11-16T01:29:40.908Z,32.00
2022-11-16T01:32:09.155Z,29.00
2022-11-16T01:34:38.188Z,32.20
2022-11-16T01:37:21.363Z,28.40
2022-11-16T01:39:51.243Z,26.60
2022-11-16T01:42:25.866Z,28.50
2022-11-16T01:45:01.393Z,28.80
2022-11-16T01:47:29.946Z,27.00
2022-11-16T01:50:13.302Z,27.90
2022-11-16T01:52:54.409Z,27.20
2022-11-16T01:55:24.095Z,24.30
2022-11-16T01:58:42.327Z,28.00
2022-11-16T02:01:24.625Z,26.30
2022-11-16T02:03:54.515Z,28.60
2022-11-16T02:07:23.572Z,29.90
2022-11-16T02:10:35.670Z,28.20
2022-11-16T02:13:22.585Z,30.50
2022-11-16T02:16:46.976Z,30.00
2022-11-16T02:19:54.808Z,29.20
2022-11-16T02:22:57.701Z,26.50
2022-11-16T02:25:53.831Z,28.40
2022-11-16T02:28:50.272Z,31.00
2022-11-16T02:31:30.603Z,36.10
2022-11-16T02:34:00.848Z,35.40
2022-11-16T02:36:28.996Z,37.70
2022-11-16T02:39:10.610Z,34.60
2022-11-16T02:41:42.988Z,27.50
2022-11-16T02:44:46.558Z,28.30
2022-11-16T02:47:22.298Z,32.10
2022-11-16T02:50:00.448Z,34.20
2022-11-16T02:52:29.520Z,29.90
2022-11-16T02:54:57.982Z,29.70
2022-11-16T02:57:34.978Z,32.80
2022-11-16T03:00:06.606Z,31.50
2022-11-16T03:03:14.350Z,29.30
2022-11-16T03:05:58.501Z,28.80
2022-11-16T03:08:36.580Z,34.20
2022-11-16T03:11:27.800Z,31.10
2022-11-16T03:14:02.650Z,28.40
2022-11-16T03:16:44.847Z,31.30
2022-11-16T03:19:23.904Z,36.10
2022-11-16T03:22:18.389Z,37.10
2022-11-16T03:24:47.502Z,39.30
2022-11-16T03:27:30.289Z,38.20
2022-11-16T03:30:13.838Z,31.40
2022-11-16T03:33:22.249Z,35.80
2022-11-16T03:36:33.883Z,30.20
2022-11-16T03:39:10.660Z,35.40
2022-11-16T03:41:44.314Z,42.30
2022-11-16T03:44:15.371Z,47.00
2022-11-16T03:46:45.555Z,43.20
2022-11-16T03:49:14.479Z,42.90
2022-11-16T03:51:43.363Z,46.50
2022-11-16T03:54:11.600Z,47.10
2022-11-16T03:56:40.121Z,47.60
2022-11-16T03:59:09.423Z,52.00
2022-11-16T04:01:43.272Z,46.80
2022-11-16T04:04:33.859Z,50.10
2022-11-16T04:07:20.904Z,41.10
2022-11-16T04:10:07.900Z,36.20
2022-11-16T04:12:55.040Z,41.70
2022-11-16T04:15:41.714Z,39.00
2022-11-16T04:18:29.172Z,41.60
2022-11-16T04:21:15.795Z,42.50
2022-11-16T04:24:03.487Z,42.40
2022-11-16T04:26:53.272Z,48.10
2022-11-16T04:29:21.474Z,49.00
2022-11-16T04:32:08.701Z,44.10
2022-11-16T04:34:55.342Z,42.20
2022-11-16T04:37:42.775Z,46.80
2022-11-16T04:40:12.290Z,45.50
2022-11-16T04:42:40.428Z,47.00
2022-11-16T04:45:29.009Z,46.00
2022-11-16T04:47:57.217Z,45.30
2022-11-16T04:50:28.552Z,46.70
2022-11-16T04:52:57.188Z,48.80
2022-11-16T04:55:25.429Z,48.10
2022-11-16T04:57:54.394Z,49.00
2022-11-16T05:00:23.195Z,53.10
2022-11-16T05:02:52.423Z,44.80
2022-11-16T05:05:23.354Z,44.90
2022-11-16T05:07:52.877Z,42.60
2022-11-16T05:10:25.237Z,45.10
2022-11-16T05:12:53.776Z,41.00
2022-11-16T05:15:22.292Z,47.80
2022-11-16T05:17:51.461Z,45.20
2022-11-16T05:20:41.176Z,50.70
2022-11-16T05:23:29.487Z,47.30
2022-11-16T05:25:59.785Z,45.00
2022-11-16T05:28:28.567Z,49.40
2022-11-16T05:30:56.983Z,47.50
2022-11-16T05:33:25.181Z,47.50
2022-11-16T05:35:53.440Z,52.20
2022-11-16T05:38:22.421Z,54.60
2022-11-16T05:40:53.428Z,48.50
2022-11-16T05:43:21.812Z,44.00
2022-11-16T05:45:59.957Z,42.00
2022-11-16T05:48:28.236Z,49.90
2022-11-16T05:51:00.534Z,52.30
2022-11-16T05:53:30.558Z,49.90
2022-11-16T05:56:27.594Z,52.90
2022-11-16T05:59:06.040Z,47.80
2022-11-16T06:01:34.490Z,55.10
2022-11-16T06:04:04.379Z,81.70
2022-11-16T06:06:32.899Z,93.20
2022-11-16T06:09:03.263Z,88.80
2022-11-16T06:11:36.037Z,77.40
2022-11-16T06:16:34.784Z,76.70
2022-11-16T06:19:04.580Z,57.40
2022-11-16T06:21:33.137Z,55.70
2022-11-16T06:24:08.865Z,62.80
2022-11-16T06:26:37.439Z,54.40
2022-11-16T06:29:05.833Z,50.50
2022-11-16T06:31:34.736Z,54.90
2022-11-16T06:34:03.998Z,58.50
2022-11-16T06:36:32.137Z,61.00
2022-11-16T06:39:03.725Z,61.20
2022-11-16T06:41:40.180Z,68.40
2022-11-16T06:44:10.243Z,74.80
2022-11-16T06:46:39.558Z,75.30
2022-11-16T06:49:07.713Z,86.30
2022-11-16T06:51:36.145Z,95.50
2022-11-16T06:54:06.393Z,80.20
2022-11-16T06:56:35.522Z,75.70
2022-11-16T06:59:03.986Z,74.50
2022-11-16T07:01:32.250Z,68.40
2022-11-16T07:04:04.983Z,68.90
2022-11-16T07:06:33.245Z,78.60
2022-11-16T07:09:01.760Z,434.60
2022-11-16T07:11:31.849Z,524.80
2022-11-16T07:14:00.747Z,214.40
2022-11-16T07:16:29.746Z,131.00
2022-11-16T07:19:00.819Z,121.80
2022-11-16T07:21:30.836Z,102.00
2022-11-16T07:23:59.406Z,85.00
2022-11-16T07:26:28.940Z,71.50
2022-11-16T07:29:01.766Z,64.50
2022-11-16T07:31:30.921Z,65.80
2022-11-16T07:34:54.284Z,69.90
2022-11-16T07:37:22.591Z,67.20
2022-11-16T07:39:50.875Z,64.60
2022-11-16T07:42:19.028Z,54.90
2022-11-16T07:45:16.458Z,61.90
2022-11-16T07:47:53.338Z,77.60
2022-11-16T07:51:08.703Z,84.80
2022-11-16T07:53:41.834Z,95.30
2022-11-16T07:56:11.767Z,123.00
2022-11-16T07:58:41.368Z,153.30
2022-11-16T08:01:15.994Z,152.80
2022-11-16T08:03:46.722Z,93.70
2022-11-16T08:06:23.823Z,73.60
2022-11-16T08:08:57.802Z,69.20
2022-11-16T08:11:27.259Z,63.40
2022-11-16T08:13:57.540Z,60.60
2022-11-16T08:16:25.827Z,54.40
2022-11-16T08:19:01.273Z,59.20
2022-11-16T08:21:29.818Z,53.50
2022-11-16T08:23:58.854Z,64.50
2022-11-16T08:26:27.797Z,61.40
2022-11-16T08:29:00.442Z,71.20
2022-11-16T08:31:31.538Z,65.10
2022-11-16T08:34:18.397Z,66.10
2022-11-16T08:36:48.536Z,56.90
2022-11-16T08:39:18.965Z,59.20
2022-11-16T08:41:47.132Z,48.40
2022-11-16T08:44:16.059Z,60.50
2022-11-16T08:46:47.636Z,60.50
2022-11-16T08:49:29.210Z,48.40
2022-11-16T08:51:57.875Z,45.90
2022-11-16T08:54:29.821Z,43.40
2022-11-16T08:56:58.241Z,44.70
2022-11-16T08:59:26.790Z,41.20
2022-11-16T09:01:57.220Z,43.90
2022-11-16T09:04:25.544Z,44.00
2022-11-16T09:06:54.897Z,36.80
2022-11-16T09:09:23.237Z,37.00
2022-11-16T09:11:53.704Z,30.60
2022-11-16T09:14:22.007Z,31.50
2022-11-16T09:16:50.445Z,27.10
2022-11-16T09:19:19.004Z,28.20
2022-11-16T09:21:47.105Z,26.40
2022-11-16T09:24:15.186Z,27.70
2022-11-16T09:26:43.938Z,28.70
2022-11-16T09:29:14.570Z,31.10
2022-11-16T09:31:42.757Z,29.50
2022-11-16T09:34:11.401Z,28.50
2022-11-16T09:36:39.615Z,34.70
2022-11-16T09:39:29.615Z,33.40
2022-11-16T09:42:04.621Z,34.30
2022-11-16T09:45:12.417Z,32.00
2022-11-16T09:47:50.523Z,32.60
2022-11-16T09:50:43.422Z,30.30
2022-11-16T09:53:25.911Z,30.20
2022-11-16T09:55:58.594Z,40.10
2022-11-16T09:58:40.830Z,39.50
2022-11-16T10:01:41.458Z,35.40
2022-11-16T10:04:36.540Z,41.70
2022-11-16T10:07:43.629Z,36.50
2022-11-16T10:10:18.068Z,36.50
2022-11-16T10:13:03.202Z,36.70
2022-11-16T10:16:12.905Z,38.20
2022-11-16T10:19:03.377Z,44.70
2022-11-16T10:22:02.182Z,46.60
2022-11-16T10:24:42.339Z,36.50
2022-11-16T10:27:28.514Z,40.90
2022-11-16T10:30:10.094Z,36.30
2022-11-16T10:33:09.656Z,36.20
2022-11-16T10:35:45.550Z,36.80
2022-11-16T10:38:18.490Z,29.50
2022-11-16T10:40:52.479Z,28.60
2022-11-16T10:43:25.659Z,29.40
2022-11-16T10:49:03.074Z,38.10
2022-11-16T10:51:31.350Z,29.50
2022-11-16T10:53:59.521Z,27.20
2022-11-16T10:56:40.565Z,28.00
2022-11-16T10:59:14.427Z,23.00
2022-11-16T11:01:49.942Z,29.70
2022-11-16T11:04:23.678Z,26.50
2022-11-16T11:07:22.011Z,30.60
2022-11-16T11:09:55.086Z,35.30
2022-11-16T11:12:38.114Z,30.20
2022-11-16T11:15:12.116Z,36.90
2022-11-16T11:17:47.290Z,35.40
2022-11-16T11:20:15.386Z,30.10
2022-11-16T11:22:58.663Z,34.80
2022-11-16T11:25:32.902Z,34.30
2022-11-16T11:28:46.599Z,46.30
2022-11-16T11:31:45.150Z,30.00
2022-11-16T11:34:22.801Z,32.50
2022-11-16T11:37:21.742Z,31.60
2022-11-16T11:40:17.563Z,32.50
2022-11-16T11:42:56.492Z,34.90
2022-11-16T11:45:36.476Z,33.00
2022-11-16T11:48:22.569Z,35.00
2022-11-16T11:50:56.114Z,36.90
2022-11-16T11:53:44.399Z,37.50
2022-11-16T11:56:14.202Z,40.40
2022-11-16T11:58:44.174Z,35.70
2022-11-16T12:01:41.027Z,36.20
2022-11-16T12:04:43.010Z,40.30
2022-11-16T12:07:37.160Z,38.30
2022-11-16T12:10:32.588Z,36.90
2022-11-16T12:13:18.603Z,42.10
2022-11-16T12:16:11.417Z,39.30
2022-11-16T12:18:50.226Z,39.70
2022-11-16T12:21:49.952Z,35.20
2022-11-16T12:25:02.226Z,40.20
2022-11-16T12:28:04.421Z,35.00
2022-11-16T12:30:47.317Z,35.30
2022-11-16T12:34:01.351Z,31.20
2022-11-16T12:37:07.718Z,30.70
2022-11-16T12:39:45.545Z,31.70
2022-11-16T12:42:41.051Z,32.00
2022-11-16T12:45:36.022Z,29.80
2022-11-16T12:48:26.011Z,25.80
2022-11-16T12:51:03.106Z,29.60
2022-11-16T12:53:52.698Z,32.30
2022-11-16T12:56:39.216Z,29.80
2022-11-16T12:59:35.369Z,32.60
2022-11-16T13:02:10.802Z,30.40
2022-11-16T13:04:50.752Z,30.20
2022-11-16T13:07:31.786Z,32.30
2022-11-16T13:10:17.252Z,35.70
2022-11-16T13:12:52.706Z,55.40
2022-11-16T13:15:34.976Z,48.20
2022-11-16T13:18:07.950Z,57.90
2022-11-16T13:20:43.892Z,38.50
2022-11-16T13:23:37.526Z,36.40
2022-11-16T13:29:17.956Z,79.60
2022-11-16T13:31:58.312Z,59.50
2022-11-16T13:34:32.838Z,50.90
2022-11-16T13:37:01.012Z,53.30
2022-11-16T13:39:50.869Z,66.90
2022-11-16T13:42:19.109Z,35.20
2022-11-16T13:44:51.529Z,46.30
2022-11-16T13:47:28.674Z,32.50
2022-11-16T13:50:03.496Z,30.50
2022-11-16T13:53:57.703Z,34.70
2022-11-16T13:55:59.168Z,34.60
2022-11-16T13:58:29.958Z,47.90
2022-11-16T14:01:07.475Z,54.20
2022-11-16T14:03:40.931Z,33.10
2022-11-16T14:06:24.213Z,41.50
2022-11-16T14:08:55.221Z,35.70
2022-11-16T14:11:40.512Z,50.60
2022-11-16T14:15:03.954Z,31.90
2022-11-16T14:18:08.718Z,40.50
2022-11-16T14:20:57.224Z,40.60
2022-11-16T14:24:13.788Z,36.20
2022-11-16T14:27:07.695Z,29.20
2022-11-16T14:30:05.805Z,34.00
2022-11-16T14:32:43.318Z,49.40
2022-11-16T14:35:28.857Z,66.30
2022-11-16T14:38:06.486Z,51.70
2022-11-16T14:40:46.468Z,54.50
2022-11-16T14:43:29.795Z,31.80
2022-11-16T14:46:09.474Z,48.80
2022-11-16T14:48:46.019Z,74.90
2022-11-16T14:51:33.043Z,43.20
2022-11-16T14:54:11.612Z,39.30
2022-11-16T14:57:00.002Z,37.50
2022-11-16T14:59:30.536Z,38.30
2022-11-16T15:02:05.991Z,123.70
2022-11-16T15:04:34.259Z,35.50
2022-11-16T15:07:05.205Z,44.90
2022-11-16T15:09:39.236Z,98.50
2022-11-16T15:12:35.242Z,109.00
2022-11-16T15:15:15.488Z,41.00
2022-11-16T15:17:51.733Z,27.20
2022-11-16T15:20:26.160Z,41.60
2022-11-16T15:22:58.312Z,49.80
2022-11-16T15:25:43.207Z,88.50
2022-11-16T15:28:26.422Z,64.20
2022-11-16T15:31:06.533Z,49.40
2022-11-16T15:33:42.590Z,54.90
2022-11-16T15:36:39.047Z,47.30
2022-11-16T15:39:18.813Z,86.40
2022-11-16T15:41:47.576Z,70.30
2022-11-16T15:44:20.350Z,34.10
2022-11-16T15:46:53.260Z,48.30
2022-11-16T15:49:33.838Z,32.70
2022-11-16T15:52:02.552Z,40.00
2022-11-16T15:55:14.467Z,43.60
2022-11-16T15:57:46.438Z,38.60
2022-11-16T16:00:23.078Z,41.40
2022-11-16T16:02:51.827Z,37.70
2022-11-16T16:05:32.652Z,42.70
2022-11-16T16:08:00.855Z,188.20
2022-11-16T16:10:29.415Z,168.20
2022-11-16T16:13:02.365Z,59.50
2022-11-16T16:15:36.060Z,50.70
2022-11-16T16:18:36.851Z,29.10
2022-11-16T16:21:05.096Z,31.90
2022-11-16T16:23:33.628Z,43.00
2022-11-16T16:26:05.196Z,34.90
2022-11-16T16:28:33.335Z,38.70
2022-11-16T16:31:01.802Z,39.70
2022-11-16T16:33:30.213Z,47.30
2022-11-16T16:35:58.333Z,77.80
2022-11-16T16:38:26.506Z,142.20
2022-11-16T16:41:03.675Z,70.60
2022-11-16T16:43:32.765Z,51.00
2022-11-16T16:46:03.003Z,52.40
2022-11-16T16:48:31.227Z,51.20
2022-11-16T16:50:59.368Z,37.10
2022-11-16T16:53:27.497Z,43.50
2022-11-16T16:55:55.676Z,39.70
2022-11-16T16:58:23.863Z,38.90
2022-11-16T17:00:56.951Z,49.90
2022-11-16T17:03:28.105Z,51.10
2022-11-16T17:06:03.095Z,45.20
2022-11-16T17:08:39.000Z,40.20
2022-11-16T17:11:07.177Z,43.30
2022-11-16T17:13:35.719Z,35.40
2022-11-16T17:16:05.961Z,48.00
2022-11-16T17:18:34.131Z,42.20
2022-11-16T17:21:07.860Z,47.10
2022-11-16T17:23:37.416Z,44.40
2022-11-16T17:26:08.399Z,56.10
2022-11-16T17:28:36.685Z,51.50
2022-11-16T17:31:10.699Z,47.10
2022-11-16T17:33:42.142Z,55.20
2022-11-16T17:36:14.326Z,49.20
2022-11-16T17:38:42.587Z,55.80
2022-11-16T17:41:24.090Z,55.40
2022-11-16T17:43:54.376Z,59.80
2022-11-16T17:46:25.738Z,49.20
2022-11-16T17:48:53.833Z,58.00
2022-11-16T17:51:25.144Z,64.50
2022-11-16T17:53:53.562Z,64.70
2022-11-16T17:56:26.132Z,57.00
2022-11-16T17:58:56.065Z,57.00
2022-11-16T18:01:25.422Z,59.80
2022-11-16T18:03:53.842Z,62.40
2022-11-16T18:06:25.179Z,63.40
2022-11-16T18:08:53.612Z,64.60
2022-11-16T18:11:25.101Z,55.50
2022-11-16T18:13:56.058Z,51.80
2022-11-16T18:16:27.841Z,63.10
2022-11-16T18:19:02.154Z,63.00
2022-11-16T18:21:31.347Z,53.10
2022-11-16T18:24:00.210Z,61.20
2022-11-16T18:26:28.347Z,57.90
2022-11-16T18:28:56.514Z,60.10
2022-11-16T18:31:25.407Z,62.00
2022-11-16T18:33:53.500Z,59.40
2022-11-16T18:36:22.844Z,58.50
2022-11-16T18:38:51.153Z,57.60
2022-11-16T18:41:29.279Z,54.30
2022-11-16T18:44:02.124Z,53.40
2022-11-16T18:46:32.677Z,54.00
2022-11-16T18:49:01.030Z,45.90
2022-11-16T18:51:29.707Z,50.20
2022-11-16T18:53:58.003Z,50.80
2022-11-16T18:56:27.261Z,44.90
2022-11-16T18:58:55.400Z,39.00
2022-11-16T19:01:27.496Z,42.50
2022-11-16T19:03:56.522Z,38.40
2022-11-16T19:06:24.639Z,43.50
2022-11-16T19:08:59.611Z,38.00
2022-11-16T19:11:28.807Z,35.60
2022-11-16T19:14:00.797Z,36.70
2022-11-16T19:16:29.415Z,42.30
2022-11-16T19:18:57.548Z,44.30
2022-11-16T19:21:25.769Z,41.90
2022-11-16T19:23:56.156Z,37.70
2022-11-16T19:26:27.111Z,41.20
2022-11-16T19:28:55.726Z,37.20
2022-11-16T19:31:29.894Z,39.10
2022-11-16T19:34:05.095Z,43.30
2022-11-16T19:36:36.325Z,40.90
2022-11-16T19:39:06.002Z,43.90
2022-11-16T19:41:34.120Z,46.20
2022-11-16T19:44:02.410Z,41.90
2022-11-16T19:46:33.215Z,44.50
2022-11-16T19:49:01.811Z,48.80
2022-11-16T19:51:33.038Z,44.30
2022-11-16T19:54:02.724Z,51.20
2022-11-16T19:56:31.221Z,51.20
2022-11-16T19:59:00.411Z,46.90
2022-11-16T20:01:29.391Z,47.50
2022-11-16T20:04:03.457Z,47.80
2022-11-16T20:06:35.410Z,50.10
2022-11-16T20:09:09.415Z,48.50
2022-11-16T20:11:40.179Z,49.90
2022-11-16T20:14:11.951Z,58.40
2022-11-16T20:16:43.226Z,46.50
2022-11-16T20:19:11.710Z,51.30
2022-11-16T20:21:42.862Z,50.90
2022-11-16T20:35:17.758Z,51.00
2022-11-16T20:37:47.700Z,45.50
2022-11-16T20:40:15.933Z,45.50
2022-11-16T20:42:44.022Z,49.40
2022-11-16T20:45:12.137Z,41.00
2022-11-16T20:47:40.226Z,43.30
2022-11-16T20:50:08.891Z,44.40
2022-11-16T20:52:42.290Z,42.90
2022-11-16T20:55:11.676Z,38.60
2022-11-16T20:57:39.803Z,44.90
2022-11-16T21:00:08.855Z,40.10
2022-11-16T21:02:36.980Z,41.30
2022-11-16T21:05:05.775Z,40.70
2022-11-16T21:07:34.544Z,45.40
2022-11-16T21:10:21.016Z,37.80
2022-11-16T21:13:08.049Z,42.40
2022-11-16T21:15:36.214Z,44.60
2022-11-16T21:18:04.554Z,37.80
2022-11-16T21:20:32.686Z,38.00
2022-11-16T21:23:00.825Z,38.30
2022-11-16T21:25:29.077Z,41.40
2022-11-16T21:27:57.197Z,38.40
2022-11-16T21:30:25.321Z,35.80
2022-11-16T21:32:53.429Z,38.40
2022-11-16T21:35:21.601Z,34.80
2022-11-16T21:37:49.710Z,40.80
2022-11-16T21:40:17.849Z,41.30
2022-11-16T21:42:47.550Z,39.70
2022-11-16T21:45:15.661Z,38.80
2022-11-16T21:47:43.783Z,39.20
2022-11-16T21:53:00.730Z,39.10
2022-11-16T21:55:29.058Z,37.30
2022-11-16T21:58:00.826Z,36.30
2022-11-16T22:00:29.782Z,36.70
2022-11-16T22:02:57.917Z,41.20
2022-11-16T22:05:44.835Z,35.30
2022-11-16T22:08:12.989Z,37.30
2022-11-16T22:10:41.169Z,41.30
2022-11-16T22:13:09.265Z,37.00
2022-11-16T22:15:37.358Z,42.30
2022-11-16T22:18:05.746Z,37.20
2022-11-16T22:20:34.112Z,36.90
2022-11-16T22:23:02.232Z,34.10
2022-11-16T22:25:30.387Z,38.00
2022-11-16T22:28:19.800Z,31.60
2022-11-16T22:30:51.362Z,35.80
2022-11-16T22:33:20.646Z,37.80
2022-11-16T22:35:48.764Z,34.20
2022-11-16T22:38:16.870Z,33.80
2022-11-16T22:40:52.797Z,32.30
2022-11-16T22:43:31.351Z,34.60
2022-11-16T22:46:02.565Z,30.90
2022-11-16T22:48:36.569Z,35.00
2022-11-16T22:51:19.603Z,29.80
2022-11-16T22:53:51.965Z,29.40
2022-11-16T22:56:20.162Z,30.60
2022-11-16T22:58:48.335Z,29.60
2022-11-16T23:01:16.760Z,26.30
2022-11-16T23:03:45.139Z,25.40
2022-11-16T23:06:13.675Z,26.40
2022-11-16T23:08:41.972Z,27.60
2022-11-16T23:11:38.141Z,26.50
2022-11-16T23:14:29.595Z,26.90
2022-11-16T23:16:58.057Z,28.70
2022-11-16T23:19:45.298Z,23.30
2022-11-16T23:22:39.003Z,22.50
2022-11-16T23:28:06.736Z,24.20
2022-11-16T23:30:36.776Z,23.10
2022-11-16T23:33:04.862Z,21.00
2022-11-16T23:35:33.523Z,21.70
2022-11-16T23:38:06.482Z,21.30
2022-11-16T23:40:40.067Z,21.90
2022-11-16T23:43:28.789Z,22.60
2022-11-16T23:45:57.024Z,19.50
2022-11-16T23:48:25.169Z,22.00
2022-11-16T23:50:53.291Z,23.90
2022-11-16T23:53:21.472Z,24.30
2022-11-16T23:55:49.613Z,24.60
2022-11-16T23:58:17.701Z,24.70
